createdAt,value
2023-02-14T00:01:00.681Z,34.78
2023-02-14T00:06:08.855Z,38.78
2023-02-14T00:11:16.706Z,51.53
2023-02-14T00:16:21.552Z,57.42
2023-02-14T00:21:26.503Z,53.20
2023-02-14T00:26:34.152Z,67.97
2023-02-14T00:31:39.239Z,68.07
2023-02-14T00:36:44.095Z,60.78
2023-02-14T00:41:51.457Z,55.33
2023-02-14T00:46:56.228Z,40.65
2023-02-14T00:52:01.079Z,43.22
2023-02-14T00:57:08.660Z,34.05
2023-02-14T01:02:13.499Z,42.03
2023-02-14T01:07:18.546Z,43.60
2023-02-14T01:12:25.992Z,38.92
2023-02-14T01:17:30.841Z,66.70
2023-02-14T01:22:38.612Z,49.28
2023-02-14T01:27:49.561Z,39.67
2023-02-14T01:33:01.105Z,54.30
2023-02-14T01:38:09.018Z,34.72
2023-02-14T01:43:25.725Z,26.77
2023-02-14T01:48:30.543Z,23.08
2023-02-14T01:53:35.410Z,24.30
2023-02-14T01:58:45.302Z,26.35
2023-02-14T02:03:51.535Z,23.05
2023-02-14T02:09:00.751Z,19.70
2023-02-14T02:14:08.251Z,18.45
2023-02-14T02:19:25.121Z,19.10
2023-02-14T02:24:34.789Z,19.52
2023-02-14T02:29:57.406Z,22.03
2023-02-14T02:35:23.054Z,19.88
2023-02-14T02:40:42.663Z,24.77
2023-02-14T02:46:15.373Z,17.65
2023-02-14T02:51:36.328Z,21.58
2023-02-14T02:56:51.477Z,21.38
2023-02-14T03:02:02.514Z,22.13
2023-02-14T03:07:27.996Z,17.63
2023-02-14T03:12:47.638Z,34.17
2023-02-14T03:17:59.882Z,46.33
2023-02-14T03:23:07.611Z,37.78
2023-02-14T03:28:15.221Z,34.15
2023-02-14T03:33:25.924Z,31.70
2023-02-14T03:38:32.826Z,33.25
2023-02-14T03:43:46.143Z,34.53
2023-02-14T03:48:54.520Z,24.27
2023-02-14T03:54:00.955Z,35.35
2023-02-14T03:59:09.301Z,31.17
2023-02-14T04:04:18.381Z,22.08
2023-02-14T04:09:23.130Z,27.65
2023-02-14T04:14:29.777Z,28.00
2023-02-14T04:19:37.360Z,28.15
2023-02-14T04:24:42.204Z,28.25
2023-02-14T04:29:47.960Z,27.20
2023-02-14T04:34:55.461Z,24.13
2023-02-14T04:40:00.198Z,27.63
2023-02-14T04:45:05.078Z,24.55
2023-02-14T04:50:13.171Z,24.45
2023-02-14T04:55:17.942Z,25.70
2023-02-14T05:00:23.036Z,23.52
2023-02-14T05:05:30.362Z,34.42
2023-02-14T05:10:35.215Z,32.92
2023-02-14T05:15:39.890Z,25.15
2023-02-14T05:20:47.246Z,23.98
2023-02-14T05:25:52.310Z,26.48
2023-02-14T05:30:57.290Z,24.48
2023-02-14T05:36:05.115Z,21.48
2023-02-14T05:41:09.925Z,25.13
2023-02-14T05:46:14.763Z,23.60
2023-02-14T05:51:22.199Z,20.65
2023-02-14T05:56:26.908Z,26.05
2023-02-14T06:01:31.760Z,30.50
2023-02-14T06:06:39.161Z,23.30
2023-02-14T06:11:44.004Z,20.67
2023-02-14T06:16:48.849Z,21.98
2023-02-14T06:21:56.404Z,23.83
2023-02-14T06:27:01.865Z,20.92
2023-02-14T06:32:07.526Z,17.98
2023-02-14T06:37:14.990Z,18.88
2023-02-14T06:42:20.665Z,20.65
2023-02-14T06:47:25.540Z,18.40
2023-02-14T06:52:33.137Z,21.15
2023-02-14T06:57:37.893Z,26.77
2023-02-14T07:02:42.864Z,34.20
2023-02-14T07:07:50.408Z,30.83
2023-02-14T07:12:59.376Z,24.85
2023-02-14T07:18:04.268Z,24.08
2023-02-14T07:23:11.783Z,27.52
2023-02-14T07:28:16.725Z,20.13
2023-02-14T07:33:21.677Z,21.95
2023-02-14T07:38:30.787Z,17.63
2023-02-14T07:43:36.163Z,16.83
2023-02-14T07:48:41.826Z,22.80
2023-02-14T07:53:51.392Z,19.42
2023-02-14T07:58:56.590Z,16.88
2023-02-14T08:04:01.448Z,16.02
2023-02-14T08:09:24.950Z,19.25
2023-02-14T08:14:29.913Z,21.42
2023-02-14T08:19:34.763Z,36.03
2023-02-14T08:24:48.251Z,18.85
2023-02-14T08:29:53.087Z,18.85
2023-02-14T08:34:57.936Z,16.50
2023-02-14T08:40:05.328Z,19.33
2023-02-14T08:45:10.562Z,14.98
2023-02-14T08:50:16.215Z,15.68
2023-02-14T08:55:23.720Z,12.88
2023-02-14T09:00:28.839Z,20.40
2023-02-14T09:05:33.823Z,15.25
2023-02-14T09:10:41.339Z,11.50
2023-02-14T09:15:46.107Z,15.38
2023-02-14T09:20:50.854Z,17.33
2023-02-14T09:26:02.804Z,13.90
2023-02-14T09:31:11.631Z,16.63
2023-02-14T09:36:28.783Z,18.52
2023-02-14T09:41:51.337Z,15.77
2023-02-14T09:47:00.153Z,13.80
2023-02-14T09:52:05.773Z,20.02
2023-02-14T09:57:16.570Z,14.02
2023-02-14T10:02:30.989Z,15.02
2023-02-14T10:07:40.624Z,15.05
2023-02-14T10:12:47.894Z,19.30
2023-02-14T10:17:59.213Z,21.92
2023-02-14T10:23:07.979Z,26.05
2023-02-14T10:28:16.943Z,18.83
2023-02-14T10:33:28.889Z,19.98
2023-02-14T10:38:41.082Z,14.10
2023-02-14T10:43:50.127Z,25.05
2023-02-14T10:49:00.353Z,18.75
2023-02-14T11:05:05.790Z,20.48
2023-02-14T11:08:12.164Z,16.67
2023-02-14T11:10:14.578Z,19.15
2023-02-14T11:15:24.995Z,21.35
2023-02-14T11:20:33.399Z,21.80
2023-02-14T11:25:38.217Z,21.00
2023-02-14T11:30:45.943Z,18.63
2023-02-14T11:35:54.883Z,20.95
2023-02-14T11:41:00.559Z,21.98
2023-02-14T11:46:16.414Z,27.40
2023-02-14T11:51:28.389Z,22.15
2023-02-14T11:56:47.921Z,21.90
2023-02-14T12:01:55.663Z,17.00
2023-02-14T12:07:28.339Z,22.75
2023-02-14T12:12:35.830Z,21.58
2023-02-14T12:17:42.438Z,37.60
2023-02-14T12:22:49.761Z,32.22
2023-02-14T12:28:01.592Z,28.85
2023-02-14T12:33:06.616Z,24.10
2023-02-14T12:38:14.406Z,21.58
2023-02-14T12:43:30.667Z,19.63
2023-02-14T12:48:58.624Z,22.15
2023-02-14T12:54:24.382Z,22.48
2023-02-14T12:59:41.113Z,20.92
2023-02-14T13:04:51.705Z,20.10
2023-02-14T13:10:00.356Z,19.63
2023-02-14T13:15:15.111Z,23.98
2023-02-14T13:20:32.491Z,24.70
2023-02-14T13:25:41.048Z,21.85
2023-02-14T13:30:48.840Z,20.92
2023-02-14T13:35:54.191Z,21.10
2023-02-14T13:41:00.110Z,22.30
2023-02-14T13:46:08.101Z,23.40
2023-02-14T13:51:13.966Z,22.92
2023-02-14T13:56:35.501Z,95.05
2023-02-14T14:01:48.391Z,32.25
2023-02-14T14:12:46.330Z,29.10
2023-02-14T14:28:52.750Z,22.00
2023-02-14T14:34:01.386Z,26.25
2023-02-14T14:39:06.605Z,26.67
2023-02-14T14:44:14.000Z,34.35
2023-02-14T14:49:19.578Z,38.80
2023-02-14T14:54:25.519Z,46.88
2023-02-14T14:59:35.594Z,41.78
2023-02-14T15:04:40.496Z,28.33
2023-02-14T15:15:21.416Z,20.60
2023-02-14T15:20:33.329Z,27.92
2023-02-14T15:25:53.181Z,32.25
2023-02-14T15:31:05.374Z,35.30
2023-02-14T15:36:12.141Z,34.08
2023-02-14T15:41:17.245Z,126.13
2023-02-14T15:46:32.339Z,47.95
2023-02-14T15:51:49.818Z,65.57
2023-02-14T15:57:00.110Z,73.47
2023-02-14T16:02:18.920Z,51.70
2023-02-14T16:07:26.352Z,51.92
2023-02-14T16:12:34.806Z,46.60
2023-02-14T16:23:13.444Z,57.03
2023-02-14T16:28:21.088Z,61.63
2023-02-14T16:33:26.769Z,68.72
2023-02-14T16:38:34.599Z,86.90
2023-02-14T16:43:42.291Z,136.70
2023-02-14T16:48:51.586Z,124.95
2023-02-14T16:53:57.268Z,113.13
2023-02-14T16:59:04.887Z,92.65
2023-02-14T17:04:10.325Z,101.40
2023-02-14T17:09:16.088Z,93.93
2023-02-14T17:14:26.080Z,68.32
2023-02-14T17:19:31.396Z,59.45
2023-02-14T17:24:36.222Z,61.72
2023-02-14T17:29:43.712Z,57.45
2023-02-14T17:34:49.652Z,57.65
2023-02-14T17:39:55.801Z,59.63
2023-02-14T17:45:04.113Z,58.45
2023-02-14T17:50:09.756Z,61.58
2023-02-14T17:55:16.031Z,57.88
2023-02-14T18:00:26.096Z,56.08
2023-02-14T18:05:30.796Z,59.28
2023-02-14T18:10:35.478Z,55.88
2023-02-14T18:16:07.323Z,54.97
2023-02-14T18:21:15.902Z,59.53
2023-02-14T18:26:21.098Z,51.72
2023-02-14T18:31:26.601Z,53.03
2023-02-14T18:36:34.928Z,93.82
2023-02-14T18:41:40.009Z,62.90
2023-02-14T18:47:08.755Z,64.15
2023-02-14T18:52:16.841Z,59.83
2023-02-14T18:57:21.804Z,67.28
2023-02-14T19:02:26.767Z,75.80
2023-02-14T19:07:46.394Z,76.82
2023-02-14T19:13:00.592Z,89.18
2023-02-14T19:18:11.431Z,107.68
2023-02-14T19:23:39.803Z,111.38
2023-02-14T19:28:48.241Z,106.07
2023-02-14T19:39:34.190Z,84.40
2023-02-14T19:44:41.644Z,87.93
2023-02-14T19:49:51.551Z,82.60
2023-02-14T19:54:58.487Z,88.03
2023-02-14T20:00:11.402Z,75.03
2023-02-14T20:10:51.227Z,80.95
2023-02-14T20:15:58.526Z,76.20
2023-02-14T20:21:05.941Z,72.15
2023-02-14T20:26:14.513Z,71.63
2023-02-14T20:31:22.196Z,76.20
2023-02-14T20:36:27.211Z,79.10
2023-02-14T20:41:34.641Z,83.30
2023-02-14T20:46:42.118Z,95.45
2023-02-14T20:51:49.931Z,82.65
2023-02-14T20:56:54.975Z,84.18
2023-02-14T21:02:02.978Z,81.00
2023-02-14T21:07:10.516Z,94.38
2023-02-14T21:23:16.772Z,99.07
2023-02-14T21:28:21.566Z,76.80
2023-02-14T21:33:31.664Z,73.20
2023-02-14T21:38:36.406Z,63.00
2023-02-14T21:43:42.085Z,62.35
2023-02-14T21:49:02.892Z,62.47
2023-02-14T21:54:07.926Z,66.25
2023-02-14T21:59:13.338Z,65.43
2023-02-14T22:04:20.680Z,66.35
2023-02-14T22:09:25.539Z,67.22
2023-02-14T22:14:30.776Z,73.30
2023-02-14T22:19:38.362Z,74.28
2023-02-14T22:24:57.207Z,63.47
2023-02-14T22:30:02.074Z,80.80
2023-02-14T22:35:12.602Z,70.30
2023-02-14T22:40:17.306Z,69.38
2023-02-14T22:45:22.066Z,76.13
2023-02-14T22:50:29.670Z,79.15
2023-02-14T22:55:34.577Z,68.35
2023-02-14T23:00:39.321Z,65.85
2023-02-14T23:05:46.626Z,107.68
2023-02-14T23:10:51.861Z,73.78
2023-02-14T23:16:08.921Z,82.25
2023-02-14T23:21:30.286Z,83.53
2023-02-14T23:26:37.300Z,68.63
2023-02-14T23:31:42.423Z,62.53
2023-02-14T23:36:50.114Z,72.57
2023-02-14T23:41:55.525Z,75.70
2023-02-14T23:47:01.397Z,56.70
2023-02-14T23:52:09.511Z,59.67
2023-02-14T23:57:14.289Z,61.00
